Darfork, Kentucky
Current Conditions -  °F | °C
As of 8:25 PM on Thursday 27 Nov 2014 (Local Time) from KJKL Reporting Station
Overcast Overcast  
Wind Chill: 30°   Ceiling: 2000
Heat Index: 30°   Visibility: 8mi
Dew Point: 23°   Wind: 3mph
Humidity: 75%   Direction: NA
Pressure: 30.35"   Gusts: NA
Location:  37.2415°N, 83.2013°W
Report Text: KJKL 280125Z AUTO VRB03KT 8SM BKN020 OVC047 M01/M05 A3035 RMK AO2 CIG 014V024 T10111050
Loading
Personal Weather Stations






























Interactive Weather Map New forecast layout! Learn more

10-Day Weather Forecast

Advertisements
Track Severe Weather on mobile